sensor_id;sensor_type;location;lat;lon;timestamp;pressure;altitude;pressure_sealevel;temperature;humidity
71697;BME280;68167;59.120;37.898;2023-07-20T00:02:18;97932.63;;;14.31;82.58
71697;BME280;68167;59.120;37.898;2023-07-20T00:04:45;97909.59;;;14.18;82.14
71697;BME280;68167;59.120;37.898;2023-07-20T00:07:11;97922.47;;;14.25;82.33
71697;BME280;68167;59.120;37.898;2023-07-20T00:09:37;97919.19;;;14.19;82.39
71697;BME280;68167;59.120;37.898;2023-07-20T00:12:04;97853.06;;;13.78;82.63
71697;BME280;68167;59.120;37.898;2023-07-20T00:14:30;97867.22;;;13.78;82.55
71697;BME280;68167;59.120;37.898;2023-07-20T00:16:57;97890.66;;;14.02;82.02
71697;BME280;68167;59.120;37.898;2023-07-20T00:19:25;97928.94;;;14.24;82.43
71697;BME280;68167;59.120;37.898;2023-07-20T00:21:52;97876.56;;;13.93;82.68
71697;BME280;68167;59.120;37.898;2023-07-20T00:24:21;97927.81;;;14.25;82.61
71697;BME280;68167;59.120;37.898;2023-07-20T00:26:47;97933.63;;;14.27;82.35
71697;BME280;68167;59.120;37.898;2023-07-20T00:29:14;97925.94;;;14.25;82.40
71697;BME280;68167;59.120;37.898;2023-07-20T00:31:41;97903.53;;;14.09;82.64
71697;BME280;68167;59.120;37.898;2023-07-20T00:34:08;97910.25;;;14.15;82.67
71697;BME280;68167;59.120;37.898;2023-07-20T00:36:34;97897.00;;;13.98;82.45
71697;BME280;68167;59.120;37.898;2023-07-20T00:39:02;97902.75;;;14.08;82.43
71697;BME280;68167;59.120;37.898;2023-07-20T00:41:28;97928.16;;;14.23;82.40
71697;BME280;68167;59.120;37.898;2023-07-20T00:43:56;97886.88;;;14.03;82.44
71697;BME280;68167;59.120;37.898;2023-07-20T00:46:23;97891.78;;;14.01;82.38
71697;BME280;68167;59.120;37.898;2023-07-20T00:48:53;97928.16;;;14.23;82.64
71697;BME280;68167;59.120;37.898;2023-07-20T00:51:21;97931.41;;;14.29;82.79
71697;BME280;68167;59.120;37.898;2023-07-20T00:53:47;97925.94;;;14.25;82.48
71697;BME280;68167;59.120;37.898;2023-07-20T00:56:15;97885.31;;;14.02;82.54
71697;BME280;68167;59.120;37.898;2023-07-20T00:58:42;97930.94;;;14.27;82.58
71697;BME280;68167;59.120;37.898;2023-07-20T01:01:08;97901.50;;;14.06;82.74
71697;BME280;68167;59.120;37.898;2023-07-20T01:03:34;97894.00;;;13.99;82.99
71697;BME280;68167;59.120;37.898;2023-07-20T01:06:13;97898.88;;;13.97;82.79
71697;BME280;68167;59.120;37.898;2023-07-20T01:08:57;97923.63;;;14.15;82.55
71697;BME280;68167;59.120;37.898;2023-07-20T01:11:41;97945.91;;;14.28;82.87
71697;BME280;68167;59.120;37.898;2023-07-20T01:14:11;97931.78;;;14.18;82.93
71697;BME280;68167;59.120;37.898;2023-07-20T01:16:37;97936.69;;;14.16;83.07
71697;BME280;68167;59.120;37.898;2023-07-20T01:19:04;97937.47;;;14.17;83.31
71697;BME280;68167;59.120;37.898;2023-07-20T01:21:39;97896.84;;;13.94;82.82
71697;BME280;68167;59.120;37.898;2023-07-20T01:29:50;97966.84;;;14.26;82.89
71697;BME280;68167;59.120;37.898;2023-07-20T01:32:23;97924.34;;;14.03;82.98
71697;BME280;68167;59.120;37.898;2023-07-20T01:34:53;97895.53;;;13.79;83.11
71697;BME280;68167;59.120;37.898;2023-07-20T01:37:21;97971.75;;;14.24;83.56
71697;BME280;68167;59.120;37.898;2023-07-20T01:39:54;97963.13;;;14.18;83.17
71697;BME280;68167;59.120;37.898;2023-07-20T01:42:23;97962.34;;;14.17;83.40
71697;BME280;68167;59.120;37.898;2023-07-20T01:44:53;97957.97;;;14.13;83.33
71697;BME280;68167;59.120;37.898;2023-07-20T01:47:19;97966.59;;;14.18;83.37
71697;BME280;68167;59.120;37.898;2023-07-20T01:49:46;97967.22;;;14.15;83.31
71697;BME280;68167;59.120;37.898;2023-07-20T01:52:12;97970.38;;;14.17;83.49
71697;BME280;68167;59.120;37.898;2023-07-20T01:54:38;97955.59;;;14.11;83.21
71697;BME280;68167;59.120;37.898;2023-07-20T01:57:05;97932.22;;;14.00;83.79
71697;BME280;68167;59.120;37.898;2023-07-20T01:59:31;97986.69;;;14.25;83.77
71697;BME280;68167;59.120;37.898;2023-07-20T02:01:57;97963.13;;;14.18;83.72
71697;BME280;68167;59.120;37.898;2023-07-20T02:04:23;97962.06;;;14.10;84.13
71697;BME280;68167;59.120;37.898;2023-07-20T02:06:49;97975.22;;;14.24;84.41
71697;BME280;68167;59.120;37.898;2023-07-20T02:09:16;97970.50;;;14.21;84.30
71697;BME280;68167;59.120;37.898;2023-07-20T02:11:42;97974.56;;;14.27;84.57
71697;BME280;68167;59.120;37.898;2023-07-20T02:14:08;97977.22;;;14.27;84.40
71697;BME280;68167;59.120;37.898;2023-07-20T02:16:35;97897.28;;;13.75;84.62
71697;BME280;68167;59.120;37.898;2023-07-20T02:19:01;97934.75;;;13.96;84.72
71697;BME280;68167;59.120;37.898;2023-07-20T02:21:27;97937.13;;;13.98;84.52
71697;BME280;68167;59.120;37.898;2023-07-20T02:23:53;97943.06;;;14.03;84.70
71697;BME280;68167;59.120;37.898;2023-07-20T02:26:19;97924.56;;;13.90;84.84
71697;BME280;68167;59.120;37.898;2023-07-20T02:28:46;97959.53;;;14.14;85.03
71697;BME280;68167;59.120;37.898;2023-07-20T02:31:12;97970.38;;;14.17;84.96
71697;BME280;68167;59.120;37.898;2023-07-20T02:33:38;97927.53;;;13.97;85.07
71697;BME280;68167;59.120;37.898;2023-07-20T02:36:05;97910.28;;;13.85;85.14
71697;BME280;68167;59.120;37.898;2023-07-20T02:38:33;97907.59;;;13.85;85.19
71697;BME280;68167;59.120;37.898;2023-07-20T02:40:59;97958.22;;;14.20;85.41
71697;BME280;68167;59.120;37.898;2023-07-20T02:43:26;97973.31;;;14.25;85.14
71697;BME280;68167;59.120;37.898;2023-07-20T02:45:53;97991.78;;;14.38;85.10
71697;BME280;68167;59.120;37.898;2023-07-20T02:48:19;97987.84;;;14.36;85.41
71697;BME280;68167;59.120;37.898;2023-07-20T02:50:47;97990.22;;;14.37;85.14
71697;BME280;68167;59.120;37.898;2023-07-20T02:53:13;97968.28;;;14.23;85.25
71697;BME280;68167;59.120;37.898;2023-07-20T02:55:39;98001.22;;;14.44;85.43
71697;BME280;68167;59.120;37.898;2023-07-20T02:58:05;97993.66;;;14.38;85.40
71697;BME280;68167;59.120;37.898;2023-07-20T03:00:32;98014.16;;;14.42;85.38
71697;BME280;68167;59.120;37.898;2023-07-20T03:02:58;97979.78;;;14.24;85.19
71697;BME280;68167;59.120;37.898;2023-07-20T03:05:25;97988.19;;;14.34;85.58
71697;BME280;68167;59.120;37.898;2023-07-20T03:07:52;97966.25;;;14.20;85.37
71697;BME280;68167;59.120;37.898;2023-07-20T03:10:18;98011.28;;;14.47;85.54
71697;BME280;68167;59.120;37.898;2023-07-20T03:12:44;97931.44;;;13.99;85.47
71697;BME280;68167;59.120;37.898;2023-07-20T03:15:11;97935.69;;;14.00;85.84
71697;BME280;68167;59.120;37.898;2023-07-20T03:17:38;98019.63;;;14.46;86.02
71697;BME280;68167;59.120;37.898;2023-07-20T03:20:05;97993.03;;;14.41;85.94
71697;BME280;68167;59.120;37.898;2023-07-20T03:22:35;97966.53;;;14.27;85.55
71697;BME280;68167;59.120;37.898;2023-07-20T03:25:01;98014.09;;;14.51;85.84
71697;BME280;68167;59.120;37.898;2023-07-20T03:27:30;98010.50;;;14.47;85.84
71697;BME280;68167;59.120;37.898;2023-07-20T03:29:58;98007.50;;;14.48;85.72
71697;BME280;68167;59.120;37.898;2023-07-20T03:32:25;98018.34;;;14.52;85.96
71697;BME280;68167;59.120;37.898;2023-07-20T03:34:51;98006.72;;;14.48;85.88
71697;BME280;68167;59.120;37.898;2023-07-20T03:37:17;97989.75;;;14.35;85.99
71697;BME280;68167;59.120;37.898;2023-07-20T03:39:43;98024.41;;;14.61;85.91
71697;BME280;68167;59.120;37.898;2023-07-20T03:42:10;97999.00;;;14.46;85.86
71697;BME280;68167;59.120;37.898;2023-07-20T03:44:36;98002.59;;;14.50;85.79
71697;BME280;68167;59.120;37.898;2023-07-20T03:47:03;97981.72;;;14.35;85.73
71697;BME280;68167;59.120;37.898;2023-07-20T03:49:30;97984.38;;;14.44;85.58
71697;BME280;68167;59.120;37.898;2023-07-20T03:51:56;97981.06;;;14.38;85.50
71697;BME280;68167;59.120;37.898;2023-07-20T03:54:23;97945.63;;;14.21;85.68
71697;BME280;68167;59.120;37.898;2023-07-20T03:56:49;98009.00;;;14.58;85.63
71697;BME280;68167;59.120;37.898;2023-07-20T03:59:15;98022.78;;;14.69;85.77
71697;BME280;68167;59.120;37.898;2023-07-20T04:01:41;98013.84;;;14.65;85.72
71697;BME280;68167;59.120;37.898;2023-07-20T04:04:08;98012.72;;;14.66;85.90
71697;BME280;68167;59.120;37.898;2023-07-20T04:06:34;97999.06;;;14.59;85.30
71697;BME280;68167;59.120;37.898;2023-07-20T04:09:01;97973.66;;;14.44;85.53
71697;BME280;68167;59.120;37.898;2023-07-20T04:11:27;97966.53;;;14.48;85.82
71697;BME280;68167;59.120;37.898;2023-07-20T04:13:53;98016.13;;;14.75;85.67
71697;BME280;68167;59.120;37.898;2023-07-20T04:16:19;97967.00;;;14.50;85.71
71697;BME280;68167;59.120;37.898;2023-07-20T04:18:46;98014.63;;;14.86;85.92
71697;BME280;68167;59.120;37.898;2023-07-20T04:21:13;98008.22;;;14.78;85.69
71697;BME280;68167;59.120;37.898;2023-07-20T04:23:39;98005.88;;;14.77;85.64
71697;BME280;68167;59.120;37.898;2023-07-20T04:26:05;97999.47;;;14.69;85.63
71697;BME280;68167;59.120;37.898;2023-07-20T04:28:32;97990.66;;;14.69;85.87
71697;BME280;68167;59.120;37.898;2023-07-20T04:31:13;98011.63;;;14.88;85.75
71697;BME280;68167;59.120;37.898;2023-07-20T04:33:42;98015.53;;;14.90;85.79
71697;BME280;68167;59.120;37.898;2023-07-20T04:36:09;98019.44;;;14.93;85.74
71697;BME280;68167;59.120;37.898;2023-07-20T04:38:35;98029.28;;;15.01;85.48
71697;BME280;68167;59.120;37.898;2023-07-20T04:41:28;97988.88;;;14.73;85.28
71697;BME280;68167;59.120;37.898;2023-07-20T04:43:56;98027.50;;;14.93;85.61
71697;BME280;68167;59.120;37.898;2023-07-20T04:46:28;98040.00;;;15.01;85.69
71697;BME280;68167;59.120;37.898;2023-07-20T04:48:55;97983.00;;;14.59;85.56
71697;BME280;68167;59.120;37.898;2023-07-20T04:51:22;97980.53;;;14.54;85.52
71697;BME280;68167;59.120;37.898;2023-07-20T04:53:51;98011.41;;;14.72;85.46
71697;BME280;68167;59.120;37.898;2023-07-20T04:56:17;98039.19;;;14.88;85.48
71697;BME280;68167;59.120;37.898;2023-07-20T04:58:44;98008.94;;;14.67;85.34
71697;BME280;68167;59.120;37.898;2023-07-20T05:01:12;98035.13;;;14.82;85.48
71697;BME280;68167;59.120;37.898;2023-07-20T05:03:39;97998.88;;;14.64;85.40
71697;BME280;68167;59.120;37.898;2023-07-20T05:06:07;97994.97;;;14.61;85.15
71697;BME280;68167;59.120;37.898;2023-07-20T05:08:33;97992.16;;;14.58;85.20
71697;BME280;68167;59.120;37.898;2023-07-20T05:11:00;98034.34;;;14.81;85.56
71697;BME280;68167;59.120;37.898;2023-07-20T05:13:27;97999.19;;;14.62;85.34
71697;BME280;68167;59.120;37.898;2023-07-20T05:15:53;98044.88;;;14.87;85.88
71697;BME280;68167;59.120;37.898;2023-07-20T05:18:20;98013.19;;;14.68;85.45
71697;BME280;68167;59.120;37.898;2023-07-20T05:20:48;98048.69;;;14.98;85.65
71697;BME280;68167;59.120;37.898;2023-07-20T05:23:18;97998.88;;;14.64;85.60
71697;BME280;68167;59.120;37.898;2023-07-20T05:25:55;98049.81;;;14.97;85.38
71697;BME280;68167;59.120;37.898;2023-07-20T05:28:23;97981.97;;;14.51;85.41
71697;BME280;68167;59.120;37.898;2023-07-20T05:30:50;97976.41;;;14.56;85.58
71697;BME280;68167;59.120;37.898;2023-07-20T05:33:18;98004.94;;;14.73;85.66
71697;BME280;68167;59.120;37.898;2023-07-20T05:35:45;98042.09;;;14.95;85.55
71697;BME280;68167;59.120;37.898;2023-07-20T05:38:11;98006.44;;;14.82;85.41
71697;BME280;68167;59.120;37.898;2023-07-20T05:40:39;98052.88;;;15.07;85.36
71697;BME280;68167;59.120;37.898;2023-07-20T05:43:06;98038.22;;;15.05;85.29
71697;BME280;68167;59.120;37.898;2023-07-20T05:45:32;98036.47;;;15.09;85.29
71697;BME280;68167;59.120;37.898;2023-07-20T05:47:58;98049.47;;;15.19;85.42
71697;BME280;68167;59.120;37.898;2023-07-20T05:50:24;98056.84;;;15.22;85.14
71697;BME280;68167;59.120;37.898;2023-07-20T05:52:54;98029.25;;;15.22;85.01
71697;BME280;68167;59.120;37.898;2023-07-20T05:55:20;98031.72;;;15.27;85.07
71697;BME280;68167;59.120;37.898;2023-07-20T05:57:47;98000.50;;;15.10;84.95
71697;BME280;68167;59.120;37.898;2023-07-20T06:00:13;98046.41;;;15.41;84.72
71697;BME280;68167;59.120;37.898;2023-07-20T06:02:41;97974.03;;;15.08;84.75
71697;BME280;68167;59.120;37.898;2023-07-20T06:05:09;98029.13;;;15.51;84.68
71697;BME280;68167;59.120;37.898;2023-07-20T06:07:38;98015.38;;;15.53;84.73
71697;BME280;68167;59.120;37.898;2023-07-20T06:10:05;98003.22;;;15.55;84.42
71697;BME280;68167;59.120;37.898;2023-07-20T06:12:32;98005.13;;;15.67;84.21
71697;BME280;68167;59.120;37.898;2023-07-20T06:15:03;98029.19;;;15.88;84.61
71697;BME280;68167;59.120;37.898;2023-07-20T06:17:31;98036.03;;;15.97;84.12
71697;BME280;68167;59.120;37.898;2023-07-20T06:19:57;98029.19;;;16.00;84.04
71697;BME280;68167;59.120;37.898;2023-07-20T06:22:23;98046.09;;;16.12;83.28
71697;BME280;68167;59.120;37.898;2023-07-20T06:24:50;98038.59;;;16.18;83.80
71697;BME280;68167;59.120;37.898;2023-07-20T06:27:16;97999.22;;;15.98;83.20
71697;BME280;68167;59.120;37.898;2023-07-20T06:29:42;97989.72;;;15.88;83.13
71697;BME280;68167;59.120;37.898;2023-07-20T06:32:08;98020.72;;;16.10;82.99
71697;BME280;68167;59.120;37.898;2023-07-20T06:34:34;98021.03;;;16.08;83.02
71697;BME280;68167;59.120;37.898;2023-07-20T06:37:04;98049.41;;;16.34;82.49
71697;BME280;68167;59.120;37.898;2023-07-20T06:39:30;98062.28;;;16.28;82.37
71697;BME280;68167;59.120;37.898;2023-07-20T06:41:56;98028.53;;;16.03;82.14
71697;BME280;68167;59.120;37.898;2023-07-20T06:44:23;98022.38;;;16.02;82.08
71697;BME280;68167;59.120;37.898;2023-07-20T06:46:49;98050.56;;;16.21;81.77
71697;BME280;68167;59.120;37.898;2023-07-20T06:49:28;98070.22;;;16.37;81.85
71697;BME280;68167;59.120;37.898;2023-07-20T06:51:54;98052.38;;;16.17;81.82
71697;BME280;68167;59.120;37.898;2023-07-20T06:54:21;98046.66;;;16.18;81.77
71697;BME280;68167;59.120;37.898;2023-07-20T06:56:47;98067.22;;;16.26;81.43
71697;BME280;68167;59.120;37.898;2023-07-20T06:59:13;98001.56;;;15.87;81.43
71697;BME280;68167;59.120;37.898;2023-07-20T07:01:39;98074.59;;;16.29;81.49
71697;BME280;68167;59.120;37.898;2023-07-20T07:04:06;98067.59;;;16.25;81.53
71697;BME280;68167;59.120;37.898;2023-07-20T07:06:32;98075.06;;;16.19;81.57
71697;BME280;68167;59.120;37.898;2023-07-20T07:08:58;98050.34;;;16.01;81.52
71697;BME280;68167;59.120;37.898;2023-07-20T07:11:25;98110.63;;;16.28;81.82
71697;BME280;68167;59.120;37.898;2023-07-20T07:13:51;98077.31;;;16.17;81.97
71697;BME280;68167;59.120;37.898;2023-07-20T07:16:17;98074.06;;;16.24;81.71
71697;BME280;68167;59.120;37.898;2023-07-20T07:18:45;98042.06;;;16.06;81.65
71697;BME280;68167;59.120;37.898;2023-07-20T07:21:11;98021.81;;;15.97;81.47
71697;BME280;68167;59.120;37.898;2023-07-20T07:23:39;98072.59;;;16.38;81.42
71697;BME280;68167;59.120;37.898;2023-07-20T07:26:05;98080.63;;;16.51;81.23
71697;BME280;68167;59.120;37.898;2023-07-20T07:28:31;98096.19;;;16.57;81.16
71697;BME280;68167;59.120;37.898;2023-07-20T07:30:58;98058.47;;;16.41;80.85
71697;BME280;68167;59.120;37.898;2023-07-20T07:33:24;98097.34;;;16.68;80.75
71697;BME280;68167;59.120;37.898;2023-07-20T07:35:51;98062.84;;;16.58;80.57
71697;BME280;68167;59.120;37.898;2023-07-20T07:38:19;98069.44;;;16.73;79.98
71697;BME280;68167;59.120;37.898;2023-07-20T07:40:46;98070.22;;;16.86;80.10
71697;BME280;68167;59.120;37.898;2023-07-20T07:43:12;98096.59;;;16.96;79.91
71697;BME280;68167;59.120;37.898;2023-07-20T07:45:40;98052.19;;;16.86;79.78
71697;BME280;68167;59.120;37.898;2023-07-20T07:48:06;98091.19;;;17.08;79.76
71697;BME280;68167;59.120;37.898;2023-07-20T07:50:33;98095.28;;;17.18;79.47
71697;BME280;68167;59.120;37.898;2023-07-20T07:53:00;98094.03;;;17.27;79.30
71697;BME280;68167;59.120;37.898;2023-07-20T07:55:26;98039.91;;;17.01;78.55
71697;BME280;68167;59.120;37.898;2023-07-20T07:57:53;98079.22;;;17.33;78.63
71697;BME280;68167;59.120;37.898;2023-07-20T08:00:19;98097.47;;;17.56;78.53
71697;BME280;68167;59.120;37.898;2023-07-20T08:02:46;98097.00;;;17.66;78.66
71697;BME280;68167;59.120;37.898;2023-07-20T08:05:14;98095.19;;;17.70;78.58
71697;BME280;68167;59.120;37.898;2023-07-20T08:07:40;98105.03;;;17.78;78.13
71697;BME280;68167;59.120;37.898;2023-07-20T08:10:07;98097.81;;;17.82;78.01
71697;BME280;68167;59.120;37.898;2023-07-20T08:12:34;98049.66;;;17.49;77.94
71697;BME280;68167;59.120;37.898;2023-07-20T08:15:00;98077.03;;;17.67;77.71
71697;BME280;68167;59.120;37.898;2023-07-20T08:17:26;98123.97;;;17.97;77.58
71697;BME280;68167;59.120;37.898;2023-07-20T08:19:53;98100.69;;;17.89;77.76
71697;BME280;68167;59.120;37.898;2023-07-20T08:22:19;98081.16;;;17.92;77.14
71697;BME280;68167;59.120;37.898;2023-07-20T08:24:45;98109.66;;;18.09;76.82
71697;BME280;68167;59.120;37.898;2023-07-20T08:27:12;98114.78;;;18.14;76.15
71697;BME280;68167;59.120;37.898;2023-07-20T08:29:38;98116.00;;;18.17;76.66
71697;BME280;68167;59.120;37.898;2023-07-20T08:32:05;98104.88;;;18.18;76.40
71697;BME280;68167;59.120;37.898;2023-07-20T08:34:32;98106.72;;;18.14;76.55
71697;BME280;68167;59.120;37.898;2023-07-20T08:37:00;98071.69;;;17.98;75.88
71697;BME280;68167;59.120;37.898;2023-07-20T08:39:26;98080.38;;;18.07;75.95
71697;BME280;68167;59.120;37.898;2023-07-20T08:41:53;98112.25;;;18.37;75.92
71697;BME280;68167;59.120;37.898;2023-07-20T08:44:20;98081.56;;;18.26;75.27
71697;BME280;68167;59.120;37.898;2023-07-20T08:46:47;98089.72;;;18.45;74.30
71697;BME280;68167;59.120;37.898;2023-07-20T08:49:16;98072.34;;;18.42;74.11
71697;BME280;68167;59.120;37.898;2023-07-20T08:51:45;98088.50;;;18.58;73.45
71697;BME280;68167;59.120;37.898;2023-07-20T08:54:13;98066.41;;;18.68;73.20
71697;BME280;68167;59.120;37.898;2023-07-20T08:56:40;98112.13;;;19.00;73.20
71697;BME280;68167;59.120;37.898;2023-07-20T08:59:08;98113.16;;;19.11;72.70
71697;BME280;68167;59.120;37.898;2023-07-20T09:01:35;98076.94;;;18.93;72.00
71697;BME280;68167;59.120;37.898;2023-07-20T09:04:03;98104.56;;;19.25;72.48
71697;BME280;68167;59.120;37.898;2023-07-20T09:06:29;98065.38;;;19.12;72.02
71697;BME280;68167;59.120;37.898;2023-07-20T09:08:56;98106.56;;;19.47;71.71
71697;BME280;68167;59.120;37.898;2023-07-20T09:11:22;98050.25;;;19.26;71.31
71697;BME280;68167;59.120;37.898;2023-07-20T09:14:10;98130.91;;;19.70;71.46
71697;BME280;68167;59.120;37.898;2023-07-20T09:16:53;98106.53;;;19.66;70.78
71697;BME280;68167;59.120;37.898;2023-07-20T09:19:20;98096.22;;;19.72;70.94
71697;BME280;68167;59.120;37.898;2023-07-20T09:21:48;98127.09;;;19.94;70.67
71697;BME280;68167;59.120;37.898;2023-07-20T09:24:17;98051.63;;;19.59;69.47
71697;BME280;68167;59.120;37.898;2023-07-20T09:26:44;98095.84;;;19.93;69.82
71697;BME280;68167;59.120;37.898;2023-07-20T09:29:19;98086.94;;;19.92;69.59
71697;BME280;68167;59.120;37.898;2023-07-20T09:32:11;98109.50;;;20.26;70.18
71697;BME280;68167;59.120;37.898;2023-07-20T09:34:38;98111.47;;;20.29;68.83
71697;BME280;68167;59.120;37.898;2023-07-20T09:37:04;98089.78;;;20.26;69.04
71697;BME280;68167;59.120;37.898;2023-07-20T09:39:31;98067.69;;;20.20;68.76
71697;BME280;68167;59.120;37.898;2023-07-20T09:42:01;98034.91;;;19.95;68.78
71697;BME280;68167;59.120;37.898;2023-07-20T09:44:28;98071.28;;;20.28;69.17
71697;BME280;68167;59.120;37.898;2023-07-20T09:46:54;98088.50;;;20.39;67.28
71697;BME280;68167;59.120;37.898;2023-07-20T09:49:21;98062.25;;;20.17;66.47
71697;BME280;68167;59.120;37.898;2023-07-20T09:51:48;98072.25;;;20.16;66.86
71697;BME280;68167;59.120;37.898;2023-07-20T09:54:14;98109.97;;;20.32;68.02
71697;BME280;68167;59.120;37.898;2023-07-20T09:56:42;98111.34;;;20.22;68.18
71697;BME280;68167;59.120;37.898;2023-07-20T09:59:08;98104.84;;;20.00;68.27
71697;BME280;68167;59.120;37.898;2023-07-20T10:01:41;98072.97;;;19.87;68.12
71697;BME280;68167;59.120;37.898;2023-07-20T10:04:11;98081.53;;;19.92;68.22
71697;BME280;68167;59.120;37.898;2023-07-20T10:06:42;98119.31;;;20.12;67.70
71697;BME280;68167;59.120;37.898;2023-07-20T10:09:10;98078.41;;;19.67;67.42
71697;BME280;68167;59.120;37.898;2023-07-20T10:11:43;98112.84;;;19.74;68.47
71697;BME280;68167;59.120;37.898;2023-07-20T10:14:12;98134.59;;;19.62;68.64
71697;BME280;68167;59.120;37.898;2023-07-20T10:16:45;98111.94;;;19.28;69.56
71697;BME280;68167;59.120;37.898;2023-07-20T10:19:23;98116.28;;;19.13;70.88
71697;BME280;68167;59.120;37.898;2023-07-20T10:22:24;98067.47;;;18.64;71.71
71697;BME280;68167;59.120;37.898;2023-07-20T10:24:51;98094.50;;;18.67;71.82
71697;BME280;68167;59.120;37.898;2023-07-20T10:27:23;98110.69;;;18.67;71.14
71697;BME280;68167;59.120;37.898;2023-07-20T10:29:51;98098.69;;;18.65;71.50
71697;BME280;68167;59.120;37.898;2023-07-20T10:32:19;98138.16;;;18.92;71.44
71697;BME280;68167;59.120;37.898;2023-07-20T10:34:52;98152.44;;;18.93;71.48
71697;BME280;68167;59.120;37.898;2023-07-20T10:37:50;98153.84;;;18.87;71.71
71697;BME280;68167;59.120;37.898;2023-07-20T10:42:59;98166.25;;;18.91;71.43
71697;BME280;68167;59.120;37.898;2023-07-20T10:45:51;98157.56;;;18.98;71.96
71697;BME280;68167;59.120;37.898;2023-07-20T10:48:23;98141.50;;;18.86;71.32
71697;BME280;68167;59.120;37.898;2023-07-20T10:51:12;98167.63;;;19.01;72.05
71697;BME280;68167;59.120;37.898;2023-07-20T10:53:42;98154.50;;;18.99;72.22
71697;BME280;68167;59.120;37.898;2023-07-20T10:56:13;98164.88;;;18.97;71.82
71697;BME280;68167;59.120;37.898;2023-07-20T10:58:42;98128.69;;;18.63;72.33
71697;BME280;68167;59.120;37.898;2023-07-20T11:01:13;98147.13;;;18.61;72.43
71697;BME280;68167;59.120;37.898;2023-07-20T11:03:40;98160.47;;;18.58;72.77
71697;BME280;68167;59.120;37.898;2023-07-20T11:09:13;98161.78;;;18.32;73.43
71697;BME280;68167;59.120;37.898;2023-07-20T11:11:44;98187.94;;;18.32;73.06
71697;BME280;68167;59.120;37.898;2023-07-20T11:14:21;98176.31;;;18.12;73.21
71697;BME280;68167;59.120;37.898;2023-07-20T11:16:48;98183.69;;;18.15;73.46
71697;BME280;68167;59.120;37.898;2023-07-20T11:21:44;98154.53;;;17.89;73.02
71697;BME280;68167;59.120;37.898;2023-07-20T11:24:10;98131.53;;;17.64;72.68
71697;BME280;68167;59.120;37.898;2023-07-20T11:26:53;98196.44;;;17.74;73.06
71697;BME280;68167;59.120;37.898;2023-07-20T11:29:21;98201.28;;;17.57;73.68
71697;BME280;68167;59.120;37.898;2023-07-20T11:31:49;98178.44;;;17.23;73.49
71697;BME280;68167;59.120;37.898;2023-07-20T11:34:20;98203.78;;;17.09;74.11
71697;BME280;68167;59.120;37.898;2023-07-20T11:36:50;98215.09;;;17.03;75.06
71697;BME280;68167;59.120;37.898;2023-07-20T11:39:18;98172.47;;;16.77;75.27
71697;BME280;68167;59.120;37.898;2023-07-20T11:42:06;98199.53;;;16.96;75.61
71697;BME280;68167;59.120;37.898;2023-07-20T11:44:35;98157.69;;;16.71;75.37
71697;BME280;68167;59.120;37.898;2023-07-20T11:47:06;98218.88;;;17.14;75.60
71697;BME280;68167;59.120;37.898;2023-07-20T11:49:41;98207.03;;;17.03;75.60
71697;BME280;68167;59.120;37.898;2023-07-20T11:52:10;98198.50;;;17.01;75.84
71697;BME280;68167;59.120;37.898;2023-07-20T11:54:40;98176.44;;;16.95;75.86
71697;BME280;68167;59.120;37.898;2023-07-20T11:57:07;98157.22;;;16.81;75.83
71697;BME280;68167;59.120;37.898;2023-07-20T11:59:55;98212.72;;;17.26;76.19
71697;BME280;68167;59.120;37.898;2023-07-20T12:02:27;98193.13;;;17.13;76.08
71697;BME280;68167;59.120;37.898;2023-07-20T12:04:57;98221.22;;;17.40;75.98
71697;BME280;68167;59.120;37.898;2023-07-20T12:07:27;98223.13;;;17.39;76.00
71697;BME280;68167;59.120;37.898;2023-07-20T12:10:07;98206.09;;;17.35;76.18
71697;BME280;68167;59.120;37.898;2023-07-20T12:12:37;98233.06;;;17.51;75.79
71697;BME280;68167;59.120;37.898;2023-07-20T12:17:51;98220.44;;;17.80;74.68
71697;BME280;68167;59.120;37.898;2023-07-20T12:20:36;98200.75;;;17.91;74.29
71697;BME280;68167;59.120;37.898;2023-07-20T12:23:07;98193.31;;;18.00;73.64
71697;BME280;68167;59.120;37.898;2023-07-20T12:25:44;98231.31;;;18.42;73.49
71697;BME280;68167;59.120;37.898;2023-07-20T12:28:12;98197.84;;;18.28;73.49
71697;BME280;68167;59.120;37.898;2023-07-20T12:30:41;98179.53;;;18.18;73.64
71697;BME280;68167;59.120;37.898;2023-07-20T12:33:07;98233.69;;;18.60;72.85
71697;BME280;68167;59.120;37.898;2023-07-20T12:35:34;98174.63;;;18.23;72.63
71697;BME280;68167;59.120;37.898;2023-07-20T12:38:00;98235.59;;;18.59;72.80
71697;BME280;68167;59.120;37.898;2023-07-20T12:40:27;98223.41;;;18.50;71.85
71697;BME280;68167;59.120;37.898;2023-07-20T12:42:53;98248.84;;;18.64;71.45
71697;BME280;68167;59.120;37.898;2023-07-20T12:45:22;98223.38;;;18.62;71.18
71697;BME280;68167;59.120;37.898;2023-07-20T12:47:48;98217.06;;;18.58;70.53
71697;BME280;68167;59.120;37.898;2023-07-20T12:50:14;98212.38;;;18.55;70.79
71697;BME280;68167;59.120;37.898;2023-07-20T12:52:41;98209.63;;;18.67;70.37
71697;BME280;68167;59.120;37.898;2023-07-20T12:55:08;98221.81;;;18.77;69.74
71697;BME280;68167;59.120;37.898;2023-07-20T12:57:35;98210.94;;;18.73;69.76
71697;BME280;68167;59.120;37.898;2023-07-20T13:00:03;98235.28;;;18.77;69.00
71697;BME280;68167;59.120;37.898;2023-07-20T13:02:33;98167.78;;;18.41;68.72
71697;BME280;68167;59.120;37.898;2023-07-20T13:05:02;98175.59;;;18.31;68.22
71697;BME280;68167;59.120;37.898;2023-07-20T13:07:37;98176.03;;;18.33;68.62
71697;BME280;68167;59.120;37.898;2023-07-20T13:10:05;98234.69;;;18.67;68.42
71697;BME280;68167;59.120;37.898;2023-07-20T13:12:33;98216.84;;;18.63;68.23
71697;BME280;68167;59.120;37.898;2023-07-20T13:15:01;98246.41;;;18.75;68.35